createdAt,value
2017-07-26T00:02:17.622Z,18.50
2017-07-26T00:04:45.205Z,18.50
2017-07-26T00:07:12.762Z,18.50
2017-07-26T00:09:40.422Z,18.50
2017-07-26T00:12:07.994Z,18.60
2017-07-26T00:14:35.641Z,18.50
2017-07-26T00:17:03.186Z,18.20
2017-07-26T00:19:30.729Z,18.50
2017-07-26T00:21:58.346Z,18.20
2017-07-26T00:24:26.702Z,18.20
2017-07-26T00:26:54.250Z,18.20
2017-07-26T00:29:21.814Z,18.20
2017-07-26T00:31:49.378Z,18.40
2017-07-26T00:34:17.033Z,18.30
2017-07-26T00:36:44.590Z,18.50
2017-07-26T00:39:12.142Z,18.60
2017-07-26T00:41:39.713Z,18.50
2017-07-26T00:44:07.270Z,18.60
2017-07-26T00:46:34.938Z,18.30
2017-07-26T00:49:02.590Z,18.30
2017-07-26T00:51:30.142Z,18.50
2017-07-26T00:53:57.686Z,18.50
2017-07-26T00:56:25.271Z,18.30
2017-07-26T00:58:53.034Z,18.30
2017-07-26T01:01:20.594Z,18.20
2017-07-26T01:03:48.142Z,18.40
2017-07-26T01:06:15.714Z,18.50
2017-07-26T01:08:43.369Z,18.30
2017-07-26T01:11:11.026Z,18.50
2017-07-26T01:13:38.598Z,18.30
2017-07-26T01:16:06.146Z,18.10
2017-07-26T01:18:33.699Z,18.40
2017-07-26T01:21:01.270Z,18.40
2017-07-26T01:23:28.930Z,18.50
2017-07-26T01:25:56.478Z,18.40
2017-07-26T01:28:24.051Z,18.40
2017-07-26T01:30:51.602Z,18.10
2017-07-26T01:33:19.166Z,18.00
2017-07-26T01:35:46.833Z,18.00
2017-07-26T01:38:14.486Z,18.00
2017-07-26T01:40:42.047Z,18.20
2017-07-26T01:43:09.614Z,17.80
2017-07-26T01:45:37.262Z,17.80
2017-07-26T01:48:04.842Z,18.00
2017-07-26T01:50:32.482Z,18.00
2017-07-26T01:53:00.026Z,18.00
2017-07-26T01:55:27.602Z,17.70
2017-07-26T01:57:55.164Z,17.50
2017-07-26T02:00:22.743Z,17.40
2017-07-26T02:02:50.290Z,17.70
2017-07-26T02:05:17.838Z,17.60
2017-07-26T02:07:45.421Z,17.70
2017-07-26T02:10:13.750Z,17.70
2017-07-26T02:12:41.333Z,17.70
2017-07-26T02:15:08.895Z,17.80
2017-07-26T02:17:36.442Z,17.50
2017-07-26T02:20:04.017Z,17.50
2017-07-26T02:22:31.671Z,17.40
2017-07-26T02:24:59.246Z,17.20
2017-07-26T02:27:26.789Z,17.30
2017-07-26T02:29:54.358Z,17.40
2017-07-26T02:32:22.007Z,17.20
2017-07-26T02:34:49.575Z,17.40
2017-07-26T02:37:17.159Z,17.30
2017-07-26T02:39:45.510Z,17.70
2017-07-26T02:42:13.162Z,17.70
2017-07-26T02:44:40.726Z,18.10
2017-07-26T02:47:08.287Z,18.30
2017-07-26T02:49:35.943Z,18.00
2017-07-26T02:52:03.509Z,18.10
2017-07-26T02:54:31.186Z,18.30
2017-07-26T02:56:58.822Z,18.20
2017-07-26T02:59:26.366Z,18.20
2017-07-26T03:01:54.046Z,18.40
2017-07-26T03:04:21.622Z,18.30
2017-07-26T03:06:49.167Z,18.50
2017-07-26T03:09:16.830Z,18.60
2017-07-26T03:11:44.490Z,18.40
2017-07-26T03:14:12.146Z,18.10
2017-07-26T03:16:39.810Z,18.10
2017-07-26T03:19:07.374Z,18.20
2017-07-26T03:21:35.031Z,18.00
2017-07-26T03:24:02.583Z,17.60
2017-07-26T03:26:30.131Z,17.60
2017-07-26T03:28:57.805Z,17.80
2017-07-26T03:31:25.364Z,17.90
2017-07-26T03:33:52.910Z,17.50
2017-07-26T03:36:20.482Z,17.80
2017-07-26T03:38:48.145Z,17.70
2017-07-26T03:41:15.709Z,18.00
2017-07-26T03:43:43.266Z,17.90
2017-07-26T03:46:10.811Z,17.80
2017-07-26T03:48:38.378Z,17.90
2017-07-26T03:51:05.947Z,18.00
2017-07-26T03:53:33.601Z,17.90
2017-07-26T03:56:01.262Z,17.90
2017-07-26T03:58:28.813Z,17.90
2017-07-26T04:00:56.386Z,18.00
2017-07-26T04:03:24.037Z,17.80
2017-07-26T04:05:51.610Z,17.70
2017-07-26T04:08:19.153Z,17.90
2017-07-26T04:10:46.705Z,18.00
2017-07-26T04:13:14.257Z,17.90
2017-07-26T04:15:41.839Z,17.90
2017-07-26T04:18:09.809Z,17.60
2017-07-26T04:20:37.358Z,17.30
2017-07-26T04:23:04.922Z,17.60
2017-07-26T04:25:32.586Z,17.90
2017-07-26T04:28:00.139Z,17.50
2017-07-26T04:30:27.804Z,17.50
2017-07-26T04:32:55.358Z,17.50
2017-07-26T04:35:22.921Z,17.40
2017-07-26T04:37:50.478Z,17.70
2017-07-26T04:40:18.142Z,17.80
2017-07-26T04:42:45.712Z,17.60
2017-07-26T04:45:13.257Z,17.50
2017-07-26T04:47:40.818Z,17.90
2017-07-26T04:50:08.363Z,18.10
2017-07-26T04:52:35.906Z,18.20
2017-07-26T04:55:03.594Z,18.20
2017-07-26T04:57:31.142Z,18.60
2017-07-26T04:59:58.716Z,18.70
2017-07-26T05:02:26.370Z,18.60
2017-07-26T05:04:53.918Z,18.50
2017-07-26T05:07:21.589Z,17.90
2017-07-26T05:09:49.155Z,17.40
2017-07-26T05:12:16.702Z,17.70
2017-07-26T05:14:44.250Z,18.20
2017-07-26T05:17:11.839Z,18.50
2017-07-26T05:19:39.434Z,18.60
2017-07-26T05:22:07.046Z,18.60
2017-07-26T05:24:34.592Z,18.70
2017-07-26T05:27:02.162Z,18.50
2017-07-26T05:29:29.713Z,18.60
2017-07-26T05:31:57.286Z,18.90
2017-07-26T05:34:24.834Z,19.30
2017-07-26T05:36:52.398Z,19.20
2017-07-26T05:39:19.942Z,19.30
2017-07-26T05:41:47.488Z,19.40
2017-07-26T05:44:15.058Z,19.20
2017-07-26T05:46:42.639Z,18.90
2017-07-26T05:49:10.314Z,18.70
2017-07-26T05:51:37.958Z,19.10
2017-07-26T05:54:05.526Z,19.40
2017-07-26T05:56:33.094Z,19.30
2017-07-26T05:59:00.638Z,18.90
2017-07-26T06:01:28.298Z,19.00
2017-07-26T06:03:55.842Z,19.20
2017-07-26T06:06:23.418Z,19.30
2017-07-26T06:08:50.986Z,19.40
2017-07-26T06:11:18.533Z,19.60
2017-07-26T06:13:46.089Z,20.00
2017-07-26T06:16:13.654Z,20.10
2017-07-26T06:18:41.306Z,20.10
2017-07-26T06:21:08.970Z,20.20
2017-07-26T06:23:36.509Z,20.30
2017-07-26T06:26:04.053Z,20.50
2017-07-26T06:28:31.650Z,20.70
2017-07-26T06:31:09.162Z,20.90
2017-07-26T06:33:37.313Z,21.10
2017-07-26T06:36:05.381Z,20.90
2017-07-26T06:38:33.603Z,20.40
2017-07-26T06:41:02.142Z,20.00
2017-07-26T06:43:30.106Z,19.70
2017-07-26T06:45:58.487Z,19.80
2017-07-26T06:48:26.413Z,19.90
2017-07-26T06:50:54.942Z,20.10
2017-07-26T06:53:22.502Z,20.10
2017-07-26T06:55:50.498Z,20.40
2017-07-26T06:58:19.148Z,20.70
2017-07-26T07:00:46.871Z,20.60
2017-07-26T07:03:14.718Z,21.00
2017-07-26T07:05:43.066Z,21.10
2017-07-26T07:08:10.780Z,21.10
2017-07-26T07:10:38.378Z,21.40
2017-07-26T07:13:06.038Z,21.60
2017-07-26T07:15:33.602Z,21.40
2017-07-26T07:18:01.769Z,21.60
2017-07-26T07:20:29.742Z,21.70
2017-07-26T07:22:57.618Z,21.70
2017-07-26T07:25:25.572Z,21.90
2017-07-26T07:27:53.499Z,21.90
2017-07-26T07:30:21.261Z,21.90
2017-07-26T07:32:48.930Z,21.90
2017-07-26T07:35:16.503Z,22.00
2017-07-26T07:37:44.395Z,21.80
2017-07-26T07:40:12.106Z,21.90
2017-07-26T07:42:39.961Z,21.80
2017-07-26T07:45:08.550Z,21.90
2017-07-26T07:47:36.363Z,21.90
2017-07-26T07:50:04.028Z,21.90
2017-07-26T07:52:31.868Z,21.80
2017-07-26T07:54:59.466Z,21.70
2017-07-26T07:57:27.019Z,22.00
2017-07-26T07:59:54.679Z,22.30
2017-07-26T08:02:22.645Z,22.20
2017-07-26T08:04:50.514Z,21.90
2017-07-26T08:07:18.451Z,21.90
2017-07-26T08:09:46.003Z,22.50
2017-07-26T08:12:13.598Z,23.30
2017-07-26T08:14:41.160Z,23.60
2017-07-26T08:17:08.814Z,23.00
2017-07-26T08:19:47.153Z,22.60
2017-07-26T08:22:14.790Z,22.90
2017-07-26T08:24:42.370Z,22.50
2017-07-26T08:27:10.726Z,22.80
2017-07-26T08:29:38.394Z,22.70
2017-07-26T08:32:06.054Z,22.80
2017-07-26T08:34:33.791Z,22.70
2017-07-26T08:37:01.375Z,22.70
2017-07-26T08:39:29.034Z,23.20
2017-07-26T08:41:56.650Z,23.60
2017-07-26T08:44:24.262Z,24.00
2017-07-26T08:46:51.909Z,24.30
2017-07-26T08:49:19.581Z,24.60
2017-07-26T08:51:47.197Z,24.70
2017-07-26T08:54:14.802Z,24.60
2017-07-26T08:56:42.382Z,24.50
2017-07-26T08:59:10.733Z,24.50
2017-07-26T09:01:38.400Z,24.50
2017-07-26T09:04:06.051Z,24.40
2017-07-26T09:06:33.612Z,24.50
2017-07-26T09:09:01.378Z,23.90
2017-07-26T09:11:28.926Z,23.30
2017-07-26T09:13:56.508Z,23.00
2017-07-26T09:16:24.066Z,23.10
2017-07-26T09:18:51.624Z,23.30
2017-07-26T09:21:19.178Z,23.70
2017-07-26T09:23:46.830Z,23.80
2017-07-26T09:26:15.094Z,24.20
2017-07-26T09:28:42.670Z,24.60
2017-07-26T09:31:10.218Z,24.00
2017-07-26T09:33:37.795Z,24.00
2017-07-26T09:36:05.442Z,23.80
2017-07-26T09:38:33.101Z,24.30
2017-07-26T09:41:00.645Z,25.00
2017-07-26T09:43:28.199Z,25.00
2017-07-26T09:45:55.751Z,24.60
2017-07-26T09:48:23.344Z,24.70
2017-07-26T09:50:51.003Z,24.40
2017-07-26T09:53:18.550Z,24.20
2017-07-26T09:55:46.130Z,24.10
2017-07-26T09:58:13.786Z,24.00
2017-07-26T10:00:41.441Z,23.90
2017-07-26T10:03:09.114Z,24.30
2017-07-26T10:05:36.766Z,24.40
2017-07-26T10:08:04.314Z,24.20
2017-07-26T10:10:31.881Z,24.20
2017-07-26T10:12:59.429Z,24.30
2017-07-26T10:15:27.186Z,24.40
2017-07-26T10:17:55.403Z,24.40
2017-07-26T10:20:23.762Z,24.50
2017-07-26T10:22:51.305Z,24.50
2017-07-26T10:25:18.877Z,24.60
2017-07-26T10:27:46.642Z,24.30
2017-07-26T10:30:14.214Z,24.40
2017-07-26T10:32:41.858Z,24.80
2017-07-26T10:35:09.427Z,24.60
2017-07-26T10:37:37.081Z,24.00
2017-07-26T10:40:04.766Z,23.90
2017-07-26T10:42:33.121Z,24.30
2017-07-26T10:45:00.682Z,24.30
2017-07-26T10:47:28.338Z,24.00
2017-07-26T10:49:56.486Z,24.20
2017-07-26T10:52:24.062Z,24.20
2017-07-26T10:54:51.634Z,24.40
2017-07-26T10:57:19.294Z,24.80
2017-07-26T10:59:46.958Z,25.10
2017-07-26T11:02:14.617Z,25.10
2017-07-26T11:04:42.274Z,25.40
2017-07-26T11:07:09.837Z,25.80
2017-07-26T11:09:37.500Z,26.20
2017-07-26T11:12:05.156Z,26.50
2017-07-26T11:14:32.719Z,26.60
2017-07-26T11:17:00.377Z,26.10
2017-07-26T11:19:27.941Z,25.50
2017-07-26T11:21:55.593Z,25.00
2017-07-26T11:24:23.249Z,25.10
2017-07-26T11:26:50.794Z,25.40
2017-07-26T11:29:18.478Z,25.50
2017-07-26T11:31:46.052Z,25.80
2017-07-26T11:34:13.943Z,25.80
2017-07-26T11:36:42.367Z,26.50
2017-07-26T11:39:10.357Z,26.50
2017-07-26T11:41:38.015Z,26.80
2017-07-26T11:44:05.574Z,26.90
2017-07-26T11:46:33.398Z,26.80
2017-07-26T11:49:01.302Z,26.40
2017-07-26T11:51:29.177Z,25.90
2017-07-26T11:53:57.138Z,26.10
2017-07-26T11:56:24.702Z,26.40
2017-07-26T11:58:52.746Z,27.00
2017-07-26T12:01:20.598Z,27.20
2017-07-26T12:03:48.376Z,27.10
2017-07-26T12:06:15.966Z,27.60
2017-07-26T12:08:43.622Z,28.10
2017-07-26T12:11:11.383Z,28.60
2017-07-26T12:13:38.945Z,28.90
2017-07-26T12:16:06.498Z,29.20
2017-07-26T12:18:34.476Z,29.50
2017-07-26T12:21:02.138Z,29.40
2017-07-26T12:23:30.002Z,28.90
2017-07-26T12:25:58.559Z,29.50
2017-07-26T12:28:26.341Z,29.50
2017-07-26T12:30:54.654Z,29.40
2017-07-26T12:33:22.290Z,29.40
2017-07-26T12:35:49.942Z,29.60
2017-07-26T12:38:17.494Z,29.80
2017-07-26T12:40:45.074Z,30.00
2017-07-26T12:43:12.650Z,30.00
2017-07-26T12:45:41.002Z,29.10
2017-07-26T12:48:08.670Z,29.10
2017-07-26T12:50:36.299Z,28.80
2017-07-26T12:53:03.882Z,28.70
2017-07-26T12:55:31.539Z,28.10
2017-07-26T12:57:59.102Z,27.70
2017-07-26T13:00:26.782Z,27.40
2017-07-26T13:02:54.867Z,27.30
2017-07-26T13:05:22.598Z,27.30
2017-07-26T13:07:50.303Z,27.00
2017-07-26T13:10:17.921Z,26.70
2017-07-26T13:12:45.470Z,26.30
2017-07-26T13:15:13.042Z,26.00
2017-07-26T13:17:40.722Z,25.80
2017-07-26T13:20:09.067Z,25.00
2017-07-26T13:22:36.633Z,25.00
2017-07-26T13:25:04.195Z,24.60
2017-07-26T13:27:31.739Z,24.60
2017-07-26T13:29:59.292Z,24.80
2017-07-26T13:32:26.876Z,24.40
2017-07-26T13:34:54.426Z,24.00
2017-07-26T13:37:21.997Z,24.30
2017-07-26T13:39:49.554Z,24.70
2017-07-26T13:42:17.213Z,24.70
2017-07-26T13:44:44.781Z,24.40
2017-07-26T13:47:12.429Z,24.60
2017-07-26T13:49:39.986Z,24.50
2017-07-26T13:52:07.545Z,24.80
2017-07-26T13:54:35.106Z,24.70
2017-07-26T13:57:02.767Z,24.40
2017-07-26T13:59:30.330Z,24.40
2017-07-26T14:01:57.990Z,24.30
2017-07-26T14:04:25.654Z,24.40
2017-07-26T14:06:53.310Z,24.30
2017-07-26T14:09:20.970Z,24.00
2017-07-26T14:11:48.518Z,23.80
2017-07-26T14:14:16.097Z,23.70
2017-07-26T14:16:43.757Z,23.70
2017-07-26T14:19:11.389Z,24.00
2017-07-26T14:21:39.053Z,24.10
2017-07-26T14:24:06.607Z,24.10
2017-07-26T14:26:34.158Z,24.20
2017-07-26T14:29:01.712Z,24.70
2017-07-26T14:31:29.326Z,24.60
2017-07-26T14:33:56.944Z,24.80
2017-07-26T14:36:24.539Z,25.20
2017-07-26T14:38:52.095Z,25.60
2017-07-26T14:41:19.636Z,26.10
2017-07-26T14:43:47.217Z,26.00
2017-07-26T14:46:14.866Z,25.70
2017-07-26T14:48:42.418Z,25.40
2017-07-26T14:51:10.008Z,25.60
2017-07-26T14:53:37.645Z,25.70
2017-07-26T14:56:05.196Z,25.90
2017-07-26T14:58:32.866Z,26.10
2017-07-26T15:01:00.426Z,26.10
2017-07-26T15:03:27.978Z,26.30
2017-07-26T15:05:55.554Z,26.30
2017-07-26T15:08:23.284Z,26.50
2017-07-26T15:10:50.866Z,26.40
2017-07-26T15:13:18.414Z,26.30
2017-07-26T15:15:45.986Z,26.50
2017-07-26T15:18:13.536Z,26.90
2017-07-26T15:20:41.118Z,27.20
2017-07-26T15:23:08.762Z,27.10
2017-07-26T15:25:36.325Z,26.80
2017-07-26T15:28:03.874Z,26.50
2017-07-26T15:30:31.447Z,26.30
2017-07-26T15:32:58.994Z,26.20
2017-07-26T15:35:26.661Z,26.00
2017-07-26T15:37:54.222Z,25.60
2017-07-26T15:40:21.782Z,25.50
2017-07-26T15:42:49.338Z,25.20
2017-07-26T15:45:17.000Z,25.30
2017-07-26T15:47:44.678Z,25.50
2017-07-26T15:50:12.234Z,25.60
2017-07-26T15:52:39.790Z,25.70
2017-07-26T15:55:07.339Z,26.00
2017-07-26T15:57:34.886Z,25.60
2017-07-26T16:00:02.467Z,25.60
2017-07-26T16:02:30.118Z,25.20
2017-07-26T16:04:57.663Z,25.10
2017-07-26T16:07:25.242Z,25.30
2017-07-26T16:09:52.895Z,25.50
2017-07-26T16:12:20.558Z,25.30
2017-07-26T16:14:48.107Z,25.00
2017-07-26T16:17:15.674Z,24.70
2017-07-26T16:19:43.248Z,24.30
2017-07-26T16:22:10.897Z,24.20
2017-07-26T16:24:38.474Z,24.10
2017-07-26T16:27:06.114Z,24.00
2017-07-26T16:29:33.696Z,24.20
2017-07-26T16:32:01.338Z,24.60
2017-07-26T16:34:28.994Z,24.90
2017-07-26T16:36:56.654Z,25.00
2017-07-26T16:39:24.223Z,25.00
2017-07-26T16:41:51.770Z,24.90
2017-07-26T16:44:19.335Z,24.60
2017-07-26T16:46:46.882Z,24.40
2017-07-26T16:49:14.463Z,24.50
2017-07-26T16:51:42.017Z,24.70
2017-07-26T16:54:09.679Z,24.80
2017-07-26T16:56:37.222Z,24.70
2017-07-26T16:59:04.868Z,24.80
2017-07-26T17:01:32.462Z,24.70
2017-07-26T17:04:00.010Z,24.90
2017-07-26T17:06:27.566Z,25.00
2017-07-26T17:08:55.131Z,25.00
2017-07-26T17:11:22.790Z,25.30
2017-07-26T17:13:50.366Z,25.40
2017-07-26T17:16:17.918Z,25.50
2017-07-26T17:18:45.565Z,25.60
2017-07-26T17:21:13.143Z,25.50
2017-07-26T17:23:40.790Z,25.40
2017-07-26T17:26:08.363Z,25.30
2017-07-26T17:28:36.013Z,25.30
2017-07-26T17:31:03.585Z,25.20
2017-07-26T17:33:31.133Z,25.20
2017-07-26T17:35:58.818Z,25.00
2017-07-26T17:38:27.174Z,25.30
2017-07-26T17:40:54.722Z,25.30
2017-07-26T17:43:22.390Z,25.10
2017-07-26T17:45:49.958Z,25.00
2017-07-26T17:48:17.618Z,25.10
2017-07-26T17:50:45.270Z,25.00
2017-07-26T17:53:12.931Z,25.10
2017-07-26T17:55:40.529Z,24.80
2017-07-26T17:58:08.842Z,24.60
2017-07-26T18:00:36.405Z,24.60
2017-07-26T18:03:03.982Z,24.70
2017-07-26T18:05:31.542Z,24.90
2017-07-26T18:07:59.117Z,24.90
2017-07-26T18:10:26.761Z,24.90
2017-07-26T18:12:54.305Z,24.90
2017-07-26T18:15:21.891Z,24.80
2017-07-26T18:17:50.297Z,24.60
2017-07-26T18:20:18.611Z,24.60
2017-07-26T18:22:46.200Z,24.60
2017-07-26T18:25:13.754Z,24.70
2017-07-26T18:27:41.414Z,24.40
2017-07-26T18:30:08.958Z,24.40
2017-07-26T18:32:36.554Z,24.30
2017-07-26T18:35:04.106Z,24.10
2017-07-26T18:37:31.649Z,24.10
2017-07-26T18:39:59.218Z,24.10
2017-07-26T18:42:26.826Z,24.10
2017-07-26T18:44:54.379Z,24.10
2017-07-26T18:47:21.974Z,23.90
2017-07-26T18:49:49.729Z,23.60
2017-07-26T18:52:17.353Z,23.50
2017-07-26T18:54:45.770Z,23.60
2017-07-26T18:57:13.451Z,23.60
2017-07-26T18:59:41.010Z,23.70
2017-07-26T19:02:08.576Z,23.80
2017-07-26T19:04:36.170Z,23.60
2017-07-26T19:07:04.494Z,23.80
2017-07-26T19:09:32.038Z,23.80
2017-07-26T19:11:59.621Z,23.30
2017-07-26T19:14:27.198Z,23.20
2017-07-26T19:16:54.927Z,23.00
2017-07-26T19:19:22.610Z,23.20
2017-07-26T19:21:50.425Z,23.10
2017-07-26T19:24:17.974Z,23.00
2017-07-26T19:26:46.388Z,23.00
2017-07-26T19:29:13.990Z,23.00
2017-07-26T19:31:41.557Z,23.00
2017-07-26T19:34:09.918Z,23.00
2017-07-26T19:36:37.554Z,23.00
2017-07-26T19:39:05.139Z,23.10
2017-07-26T19:41:32.822Z,23.00
2017-07-26T19:44:01.143Z,22.60
2017-07-26T19:46:28.735Z,22.60
2017-07-26T19:48:56.400Z,22.50
2017-07-26T19:51:24.066Z,22.60
2017-07-26T19:53:51.638Z,22.70
2017-07-26T19:56:19.990Z,22.70
2017-07-26T19:58:48.202Z,22.70
2017-07-26T20:01:16.517Z,22.80
2017-07-26T20:03:44.810Z,22.80
2017-07-26T20:06:12.378Z,22.70
2017-07-26T20:08:39.927Z,22.80
2017-07-26T20:11:07.602Z,22.70
2017-07-26T20:13:35.253Z,22.60
2017-07-26T20:16:02.818Z,22.60
2017-07-26T20:18:30.482Z,22.60
2017-07-26T20:20:58.027Z,22.60
2017-07-26T20:23:25.582Z,22.60
2017-07-26T20:25:53.151Z,22.30
2017-07-26T20:28:20.715Z,22.30
2017-07-26T20:30:48.450Z,22.20
2017-07-26T20:33:15.994Z,22.30
2017-07-26T20:35:43.542Z,22.40
2017-07-26T20:38:11.159Z,22.40
2017-07-26T20:40:38.809Z,22.40
2017-07-26T20:43:06.350Z,22.70
2017-07-26T20:45:33.905Z,22.80
2017-07-26T20:48:01.498Z,22.90
2017-07-26T20:50:29.153Z,23.10
2017-07-26T20:52:56.708Z,23.00
2017-07-26T20:55:24.271Z,23.00
2017-07-26T20:57:51.835Z,22.90
2017-07-26T21:00:19.498Z,22.90
2017-07-26T21:02:47.156Z,23.00
2017-07-26T21:05:14.702Z,22.80
2017-07-26T21:07:42.271Z,22.90
2017-07-26T21:10:09.934Z,22.90
2017-07-26T21:12:37.590Z,22.70
2017-07-26T21:15:05.255Z,22.20
2017-07-26T21:17:32.918Z,22.10
2017-07-26T21:20:00.466Z,22.00
2017-07-26T21:22:28.034Z,21.90
2017-07-26T21:24:55.602Z,21.70
2017-07-26T21:27:23.206Z,21.70
2017-07-26T21:29:50.763Z,21.90
2017-07-26T21:32:18.366Z,21.80
2017-07-26T21:34:45.931Z,21.70
2017-07-26T21:37:13.593Z,21.70
2017-07-26T21:39:41.253Z,21.50
2017-07-26T21:42:08.798Z,21.70
2017-07-26T21:44:36.375Z,21.80
2017-07-26T21:47:04.034Z,21.70
2017-07-26T21:49:31.694Z,21.70
2017-07-26T21:51:59.343Z,21.80
2017-07-26T21:54:26.894Z,21.90
2017-07-26T21:56:54.450Z,21.80
2017-07-26T21:59:22.006Z,21.50
2017-07-26T22:01:49.553Z,21.40
2017-07-26T22:04:17.134Z,21.20
2017-07-26T22:06:45.542Z,21.50
2017-07-26T22:09:13.087Z,21.50
2017-07-26T22:11:40.742Z,21.70
2017-07-26T22:14:08.307Z,21.40
2017-07-26T22:16:35.967Z,21.40
2017-07-26T22:19:03.527Z,21.40
2017-07-26T22:21:31.181Z,21.50
2017-07-26T22:23:58.751Z,21.30
2017-07-26T22:26:26.406Z,21.60
2017-07-26T22:28:54.069Z,21.90
2017-07-26T22:31:21.638Z,22.00
2017-07-26T22:33:49.962Z,21.70
2017-07-26T22:36:17.514Z,21.70
2017-07-26T22:38:45.120Z,21.60
2017-07-26T22:41:12.782Z,21.80
2017-07-26T22:43:40.334Z,21.40
2017-07-26T22:46:07.917Z,21.30
2017-07-26T22:48:35.638Z,21.10
2017-07-26T22:51:03.222Z,20.80
2017-07-26T22:53:30.923Z,20.60
2017-07-26T22:55:59.266Z,20.50
2017-07-26T22:58:26.930Z,20.50
2017-07-26T23:00:54.587Z,20.40
2017-07-26T23:03:22.141Z,20.20
2017-07-26T23:05:49.714Z,20.50
2017-07-26T23:08:17.270Z,20.70
2017-07-26T23:10:44.931Z,20.60
2017-07-26T23:13:12.591Z,20.50
2017-07-26T23:15:40.143Z,20.30
2017-07-26T23:18:07.807Z,20.60
2017-07-26T23:20:35.475Z,20.30
2017-07-26T23:23:03.130Z,20.30
2017-07-26T23:25:30.773Z,20.30
2017-07-26T23:27:58.326Z,20.30
2017-07-26T23:30:25.897Z,20.70
2017-07-26T23:32:53.471Z,20.40
2017-07-26T23:35:21.126Z,20.20
2017-07-26T23:37:48.670Z,20.10
2017-07-26T23:40:16.243Z,20.00
2017-07-26T23:42:43.811Z,20.10
2017-07-26T23:45:11.467Z,19.90
2017-07-26T23:47:39.126Z,19.70
2017-07-26T23:50:06.782Z,20.10
2017-07-26T23:52:34.334Z,20.40
2017-07-26T23:55:02.009Z,20.30
2017-07-26T23:57:29.666Z,20.50
2017-07-26T23:59:57.329Z,20.50
